createdAt,value
2018-09-17T00:01:47.078Z,5.08
2018-09-17T00:04:17.936Z,3.80
2018-09-17T00:06:46.486Z,4.85
2018-09-17T00:09:15.064Z,3.15
2018-09-17T00:11:43.586Z,3.62
2018-09-17T00:14:12.103Z,3.37
2018-09-17T00:16:40.649Z,4.45
2018-09-17T00:19:09.209Z,5.15
2018-09-17T00:21:37.729Z,4.75
2018-09-17T00:24:06.328Z,5.22
2018-09-17T00:26:34.888Z,3.77
2018-09-17T00:29:03.452Z,10.88
2018-09-17T00:31:31.961Z,5.97
2018-09-17T00:34:00.486Z,3.27
2018-09-17T00:36:29.035Z,3.45
2018-09-17T00:38:57.540Z,3.35
2018-09-17T00:41:26.085Z,5.58
2018-09-17T00:43:54.589Z,2.95
2018-09-17T00:46:23.118Z,5.08
2018-09-17T00:48:51.630Z,7.35
2018-09-17T00:51:20.615Z,7.78
2018-09-17T00:53:49.162Z,5.35
2018-09-17T00:56:17.701Z,3.20
2018-09-17T00:58:46.284Z,3.75
2018-09-17T01:01:14.854Z,3.40
2018-09-17T01:03:43.414Z,10.18
2018-09-17T01:06:11.983Z,3.70
2018-09-17T01:08:40.531Z,5.20
2018-09-17T01:11:09.239Z,3.90
2018-09-17T01:13:37.780Z,6.12
2018-09-17T01:16:06.320Z,3.45
2018-09-17T01:18:34.862Z,3.30
2018-09-17T01:21:03.415Z,3.80
2018-09-17T01:23:31.949Z,4.05
2018-09-17T01:26:00.487Z,7.08
2018-09-17T01:28:29.043Z,4.97
2018-09-17T01:30:57.567Z,3.52
2018-09-17T01:33:26.099Z,3.80
2018-09-17T01:35:54.633Z,3.62
2018-09-17T01:38:23.219Z,3.98
2018-09-17T01:40:51.849Z,4.47
2018-09-17T01:43:22.311Z,4.03
2018-09-17T01:45:50.993Z,4.40
2018-09-17T01:48:19.558Z,5.00
2018-09-17T01:50:48.111Z,4.42
2018-09-17T01:53:16.659Z,4.12
2018-09-17T01:55:45.193Z,3.95
2018-09-17T01:58:13.724Z,4.33
2018-09-17T02:00:42.293Z,5.47
2018-09-17T02:03:10.841Z,4.83
2018-09-17T02:05:39.375Z,4.60
2018-09-17T02:08:08.089Z,5.75
2018-09-17T02:10:36.582Z,8.33
2018-09-17T02:13:05.105Z,4.90
2018-09-17T02:15:33.636Z,5.10
2018-09-17T02:18:02.191Z,4.60
2018-09-17T02:20:30.754Z,6.40
2018-09-17T02:22:59.299Z,8.28
2018-09-17T02:25:27.846Z,7.25
2018-09-17T02:27:56.653Z,7.00
2018-09-17T02:30:25.193Z,6.22
2018-09-17T02:32:53.766Z,5.17
2018-09-17T02:35:22.312Z,4.92
2018-09-17T02:37:50.849Z,5.10
2018-09-17T02:40:19.528Z,6.87
2018-09-17T02:42:49.875Z,6.95
2018-09-17T02:45:19.244Z,6.03
2018-09-17T02:47:47.901Z,7.87
2018-09-17T02:50:16.483Z,6.25
2018-09-17T02:52:45.005Z,9.95
2018-09-17T02:55:13.541Z,11.38
2018-09-17T02:57:43.161Z,18.45
2018-09-17T03:00:11.769Z,7.20
2018-09-17T03:02:40.360Z,6.67
2018-09-17T03:05:09.628Z,7.70
2018-09-17T03:07:38.175Z,5.92
2018-09-17T03:10:06.758Z,10.45
2018-09-17T03:12:35.336Z,7.83
2018-09-17T03:15:15.103Z,6.72
2018-09-17T03:17:43.624Z,5.97
2018-09-17T03:20:12.168Z,6.47
2018-09-17T03:22:40.738Z,7.90
2018-09-17T03:25:09.257Z,8.23
2018-09-17T03:27:37.797Z,11.65
2018-09-17T03:30:06.419Z,7.20
2018-09-17T03:32:34.988Z,8.60
2018-09-17T03:35:03.940Z,8.13
2018-09-17T03:37:32.465Z,7.10
2018-09-17T03:40:01.162Z,10.80
2018-09-17T03:42:30.101Z,7.72
2018-09-17T03:44:59.075Z,9.68
2018-09-17T03:47:27.968Z,9.60
2018-09-17T03:49:56.503Z,9.83
2018-09-17T03:52:25.358Z,10.40
2018-09-17T03:54:53.927Z,10.35
2018-09-17T03:57:22.533Z,8.95
2018-09-17T03:59:51.147Z,10.35
2018-09-17T04:02:19.675Z,8.83
2018-09-17T04:04:48.208Z,17.07
2018-09-17T04:07:16.759Z,9.70
2018-09-17T04:09:45.774Z,9.75
2018-09-17T04:12:15.320Z,9.50
2018-09-17T04:14:43.994Z,11.88
2018-09-17T04:17:12.549Z,8.93
2018-09-17T04:19:41.106Z,8.45
2018-09-17T04:22:10.376Z,9.68
2018-09-17T04:24:38.913Z,9.23
2018-09-17T04:27:07.436Z,10.50
2018-09-17T04:29:35.979Z,9.83
2018-09-17T04:32:04.537Z,14.58
2018-09-17T04:34:33.516Z,11.57
2018-09-17T04:37:02.476Z,8.93
2018-09-17T04:39:31.048Z,9.88
2018-09-17T04:41:59.668Z,12.18
2018-09-17T04:44:28.211Z,11.38
2018-09-17T04:46:56.807Z,11.08
2018-09-17T04:49:25.336Z,12.93
2018-09-17T04:51:53.855Z,17.40
2018-09-17T04:54:22.392Z,10.28
2018-09-17T04:56:50.915Z,10.48
2018-09-17T04:59:19.487Z,13.22
2018-09-17T05:01:48.056Z,11.28
2018-09-17T05:04:16.598Z,10.03
2018-09-17T05:06:45.534Z,11.80
2018-09-17T05:09:14.078Z,15.30
2018-09-17T05:11:42.962Z,10.60
2018-09-17T05:14:11.530Z,13.45
2018-09-17T05:16:40.107Z,17.20
2018-09-17T05:19:08.667Z,10.68
2018-09-17T05:21:37.249Z,15.28
2018-09-17T05:24:06.129Z,15.90
2018-09-17T05:26:34.675Z,15.68
2018-09-17T05:29:03.212Z,15.63
2018-09-17T05:31:31.774Z,10.55
2018-09-17T05:34:00.343Z,13.32
2018-09-17T05:36:28.938Z,15.35
2018-09-17T05:38:57.468Z,15.65
2018-09-17T05:41:26.029Z,14.73
2018-09-17T05:43:54.603Z,11.33
2018-09-17T05:46:23.139Z,12.93
2018-09-17T05:48:51.751Z,13.43
2018-09-17T05:51:20.296Z,13.15
2018-09-17T05:53:48.911Z,14.75
2018-09-17T05:56:17.424Z,14.85
2018-09-17T05:58:46.015Z,12.60
2018-09-17T06:01:14.545Z,11.43
2018-09-17T06:03:43.157Z,15.65
2018-09-17T06:06:11.685Z,11.95
2018-09-17T06:08:40.436Z,12.82
2018-09-17T06:11:09.259Z,11.05
2018-09-17T06:13:37.785Z,13.93
2018-09-17T06:16:06.378Z,10.95
2018-09-17T06:18:34.979Z,13.05
2018-09-17T06:21:03.975Z,10.98
2018-09-17T06:23:32.549Z,12.95
2018-09-17T06:26:01.098Z,13.13
2018-09-17T06:28:29.709Z,12.05
2018-09-17T06:30:58.229Z,14.80
2018-09-17T06:33:26.800Z,12.07
2018-09-17T06:35:55.329Z,11.83
2018-09-17T06:38:23.903Z,12.13
2018-09-17T06:40:52.524Z,12.33
2018-09-17T06:43:21.053Z,15.18
2018-09-17T06:45:49.696Z,14.38
2018-09-17T06:48:18.226Z,13.48
2018-09-17T06:50:46.772Z,15.30
2018-09-17T06:53:15.304Z,20.52
2018-09-17T06:55:43.830Z,16.17
2018-09-17T06:58:12.349Z,13.08
2018-09-17T07:00:40.874Z,16.52
2018-09-17T07:03:09.397Z,18.48
2018-09-17T07:05:37.959Z,12.88
2018-09-17T07:08:06.476Z,14.07
2018-09-17T07:10:35.034Z,20.27
2018-09-17T07:13:03.570Z,14.05
2018-09-17T07:15:32.133Z,9.03
2018-09-17T07:18:00.722Z,14.33
2018-09-17T07:20:29.304Z,15.63
2018-09-17T07:22:57.921Z,13.53
2018-09-17T07:25:26.468Z,10.28
2018-09-17T07:27:54.988Z,11.55
2018-09-17T07:30:23.497Z,14.65
2018-09-17T07:32:52.008Z,11.28
2018-09-17T07:35:20.543Z,11.25
2018-09-17T07:37:49.090Z,10.70
2018-09-17T07:40:17.680Z,12.58
2018-09-17T07:42:46.221Z,11.78
2018-09-17T07:45:14.723Z,13.38
2018-09-17T07:47:43.269Z,7.47
2018-09-17T07:50:11.805Z,9.73
2018-09-17T07:52:40.333Z,8.75
2018-09-17T07:55:08.897Z,9.83
2018-09-17T07:57:37.430Z,8.13
2018-09-17T08:00:06.053Z,9.83
2018-09-17T08:02:34.585Z,9.58
2018-09-17T08:05:03.127Z,9.10
2018-09-17T08:07:31.655Z,9.30
2018-09-17T08:10:00.302Z,6.72
2018-09-17T08:12:28.816Z,7.78
2018-09-17T08:14:57.391Z,11.28
2018-09-17T08:17:26.021Z,11.35
2018-09-17T08:19:54.662Z,8.23
2018-09-17T08:22:23.234Z,10.70
2018-09-17T08:24:51.817Z,8.30
2018-09-17T08:27:20.351Z,10.50
2018-09-17T08:29:48.902Z,11.43
2018-09-17T08:32:17.462Z,11.40
2018-09-17T08:34:46.066Z,8.13
2018-09-17T08:37:14.596Z,9.20
2018-09-17T08:39:43.154Z,6.47
2018-09-17T08:42:11.717Z,7.20
2018-09-17T08:44:40.272Z,5.77
2018-09-17T08:47:08.802Z,5.90
2018-09-17T08:49:37.409Z,7.87
2018-09-17T08:52:06.019Z,5.70
2018-09-17T08:54:40.491Z,5.23
2018-09-17T08:57:14.290Z,10.23
2018-09-17T08:59:50.877Z,6.27
2018-09-17T09:02:24.933Z,5.37
2018-09-17T09:04:54.828Z,6.50
2018-09-17T09:07:28.604Z,5.37
2018-09-17T09:10:02.481Z,4.90
2018-09-17T09:12:36.232Z,5.53
2018-09-17T09:15:10.120Z,7.73
2018-09-17T09:17:38.649Z,6.63
2018-09-17T09:20:07.234Z,6.63
2018-09-17T09:22:35.759Z,6.90
2018-09-17T09:25:04.613Z,5.13
2018-09-17T09:27:33.206Z,5.20
2018-09-17T09:30:01.781Z,5.47
2018-09-17T09:32:30.324Z,12.30
2018-09-17T09:34:58.854Z,5.50
2018-09-17T09:37:27.643Z,4.87
2018-09-17T09:39:56.173Z,4.33
2018-09-17T09:42:24.719Z,4.30
2018-09-17T09:44:53.323Z,8.90
2018-09-17T09:47:21.869Z,5.37
2018-09-17T09:49:50.404Z,4.67
2018-09-17T09:52:18.962Z,9.70
2018-09-17T09:54:47.510Z,9.90
2018-09-17T09:57:16.049Z,5.43
2018-09-17T09:59:44.565Z,5.23
2018-09-17T10:02:18.269Z,4.10
2018-09-17T10:04:46.896Z,9.80
2018-09-17T10:07:15.490Z,4.30
2018-09-17T10:09:49.424Z,6.30
2018-09-17T10:12:23.227Z,6.93
2018-09-17T10:14:56.914Z,4.10
2018-09-17T10:17:30.745Z,3.80
2018-09-17T10:19:59.308Z,3.80
2018-09-17T10:22:27.880Z,4.53
2018-09-17T10:24:56.413Z,6.40
2018-09-17T10:27:24.950Z,8.90
2018-09-17T10:29:53.604Z,5.47
2018-09-17T10:32:22.119Z,4.17
2018-09-17T10:34:50.684Z,7.93
2018-09-17T10:37:19.240Z,2.80
2018-09-17T10:39:47.799Z,3.10
2018-09-17T10:42:16.403Z,5.90
2018-09-17T10:44:44.975Z,4.00
2018-09-17T10:47:13.526Z,5.77
2018-09-17T10:49:42.103Z,8.83
2018-09-17T10:52:10.684Z,3.50
2018-09-17T10:54:39.195Z,3.20
2018-09-17T10:57:07.842Z,13.17
2018-09-17T10:59:36.377Z,5.20
2018-09-17T11:02:04.989Z,2.63
2018-09-17T11:04:33.559Z,4.83
2018-09-17T11:07:02.086Z,2.83
2018-09-17T11:09:30.648Z,3.83
2018-09-17T11:11:59.186Z,3.77
2018-09-17T11:14:27.732Z,3.97
2018-09-17T11:16:56.283Z,2.40
2018-09-17T11:19:24.843Z,3.70
2018-09-17T11:21:53.403Z,7.40
2018-09-17T11:24:21.931Z,7.07
2018-09-17T11:26:50.472Z,3.10
2018-09-17T11:29:19.040Z,2.40
2018-09-17T11:31:47.584Z,3.30
2018-09-17T11:34:16.134Z,3.30
2018-09-17T11:36:44.926Z,6.00
2018-09-17T11:39:13.457Z,3.83
2018-09-17T11:41:42.062Z,2.97
2018-09-17T11:44:10.586Z,2.97
2018-09-17T11:46:39.096Z,2.90
2018-09-17T11:49:07.620Z,3.43
2018-09-17T11:51:36.145Z,2.83
2018-09-17T11:54:04.777Z,3.53
2018-09-17T11:56:33.332Z,10.57
2018-09-17T11:59:01.937Z,3.03
2018-09-17T12:01:35.769Z,2.60
2018-09-17T12:04:09.584Z,5.17
2018-09-17T12:06:43.483Z,5.33
2018-09-17T12:09:12.260Z,8.47
2018-09-17T12:11:41.320Z,2.80
2018-09-17T12:14:10.034Z,3.90
2018-09-17T12:16:38.571Z,2.90
2018-09-17T12:19:07.112Z,4.23
2018-09-17T12:21:36.615Z,4.73
2018-09-17T12:24:05.153Z,3.73
2018-09-17T12:26:33.771Z,3.80
2018-09-17T12:29:02.300Z,3.27
2018-09-17T12:31:30.860Z,4.20
2018-09-17T12:33:59.445Z,4.97
2018-09-17T12:36:27.969Z,5.30
2018-09-17T12:38:56.502Z,4.50
2018-09-17T12:41:25.069Z,3.87
2018-09-17T12:43:55.317Z,2.80
2018-09-17T12:46:23.865Z,5.97
2018-09-17T12:48:52.382Z,4.07
2018-09-17T12:51:20.899Z,3.33
2018-09-17T12:53:49.547Z,3.20
2018-09-17T12:56:18.180Z,3.80
2018-09-17T12:58:46.816Z,3.60
2018-09-17T13:01:15.398Z,7.00
2018-09-17T13:03:45.333Z,3.73
2018-09-17T13:06:15.612Z,8.13
2018-09-17T13:08:45.194Z,3.50
2018-09-17T13:11:13.714Z,4.80
2018-09-17T13:13:42.239Z,3.23
2018-09-17T13:16:13.485Z,4.17
2018-09-17T13:18:44.038Z,3.10
2018-09-17T13:21:12.897Z,4.67
2018-09-17T13:23:41.452Z,3.00
2018-09-17T13:26:10.263Z,3.93
2018-09-17T13:28:38.941Z,6.77
2018-09-17T13:31:07.626Z,4.53
2018-09-17T13:33:36.197Z,3.43
2018-09-17T13:36:04.753Z,3.00
2018-09-17T13:38:33.332Z,3.10
2018-09-17T13:41:01.870Z,3.10
2018-09-17T13:43:30.482Z,4.93
2018-09-17T13:45:59.215Z,3.73
2018-09-17T13:48:27.751Z,3.10
2018-09-17T13:50:56.359Z,4.83
2018-09-17T13:53:24.982Z,3.03
2018-09-17T13:55:53.503Z,2.70
2018-09-17T13:58:22.160Z,3.10
2018-09-17T14:00:50.758Z,3.10
2018-09-17T14:03:19.382Z,2.30
2018-09-17T14:05:47.935Z,2.87
2018-09-17T14:08:16.481Z,3.10
2018-09-17T14:10:45.123Z,3.50
2018-09-17T14:13:13.941Z,5.00
2018-09-17T14:15:46.760Z,3.20
2018-09-17T14:18:15.386Z,8.10
2018-09-17T14:20:44.281Z,3.13
2018-09-17T14:23:12.830Z,3.53
2018-09-17T14:25:41.351Z,3.87
2018-09-17T14:28:09.881Z,7.17
2018-09-17T14:30:38.469Z,3.23
2018-09-17T14:33:12.543Z,4.47
2018-09-17T14:35:41.266Z,3.83
2018-09-17T14:38:09.715Z,2.90
2018-09-17T14:40:38.237Z,4.33
2018-09-17T14:43:06.852Z,2.80
2018-09-17T14:45:35.383Z,3.07
2018-09-17T14:48:04.062Z,2.80
2018-09-17T14:50:32.585Z,3.07
2018-09-17T14:53:01.168Z,3.10
2018-09-17T14:55:29.691Z,7.10
2018-09-17T14:57:58.283Z,3.27
2018-09-17T15:00:27.814Z,6.03
2018-09-17T15:02:56.345Z,3.83
2018-09-17T15:05:24.919Z,5.00
2018-09-17T15:07:53.534Z,3.30
2018-09-17T15:10:22.191Z,4.40
2018-09-17T15:12:50.690Z,4.87
2018-09-17T15:15:19.291Z,6.20
2018-09-17T15:17:47.792Z,5.33
2018-09-17T15:20:16.722Z,2.87
2018-09-17T15:22:45.230Z,6.53
2018-09-17T15:25:13.775Z,3.20
2018-09-17T15:27:42.390Z,3.33
2018-09-17T15:30:11.007Z,2.97
2018-09-17T15:32:39.665Z,11.77
2018-09-17T15:35:08.229Z,6.60
2018-09-17T15:37:36.858Z,3.90
2018-09-17T15:40:05.947Z,3.30
2018-09-17T15:42:34.707Z,3.10
2018-09-17T15:45:03.383Z,3.07
2018-09-17T15:47:31.910Z,4.60
2018-09-17T15:50:00.630Z,6.50
2018-09-17T15:52:29.074Z,2.73
2018-09-17T15:54:57.720Z,5.93
2018-09-17T15:57:26.402Z,5.17
2018-09-17T15:59:54.941Z,13.93
2018-09-17T16:02:23.467Z,5.90
2018-09-17T16:04:52.024Z,6.80
2018-09-17T16:07:20.582Z,4.00
2018-09-17T16:09:49.172Z,5.03
2018-09-17T16:12:17.695Z,8.40
2018-09-17T16:14:46.347Z,3.70
2018-09-17T16:17:14.937Z,3.40
2018-09-17T16:19:43.493Z,5.00
2018-09-17T16:22:12.131Z,8.70
2018-09-17T16:24:40.669Z,4.80
2018-09-17T16:27:09.214Z,5.73
2018-09-17T16:29:37.824Z,3.50
2018-09-17T16:32:06.435Z,4.20
2018-09-17T16:34:34.987Z,4.60
2018-09-17T16:37:03.546Z,5.53
2018-09-17T16:39:32.079Z,4.57
2018-09-17T16:42:00.699Z,3.60
2018-09-17T16:44:29.231Z,4.07
2018-09-17T16:46:57.867Z,3.83
2018-09-17T16:49:26.408Z,3.40
2018-09-17T16:51:56.543Z,3.80
2018-09-17T16:54:26.597Z,3.67
2018-09-17T16:56:55.134Z,8.45
2018-09-17T16:59:23.804Z,12.10
2018-09-17T17:01:53.215Z,4.60
2018-09-17T17:04:21.742Z,4.13
2018-09-17T17:06:50.316Z,4.00
2018-09-17T17:09:18.862Z,4.50
2018-09-17T17:11:47.397Z,6.03
2018-09-17T17:14:15.956Z,4.40
2018-09-17T17:16:44.506Z,4.23
2018-09-17T17:19:13.097Z,5.57
2018-09-17T17:21:41.619Z,4.40
2018-09-17T17:24:10.182Z,8.87
2018-09-17T17:26:38.722Z,8.73
2018-09-17T17:29:07.334Z,8.53
2018-09-17T17:31:35.882Z,6.63
2018-09-17T17:34:04.597Z,5.47
2018-09-17T17:36:33.120Z,5.27
2018-09-17T17:39:01.727Z,7.50
2018-09-17T17:41:30.310Z,5.63
2018-09-17T17:43:58.956Z,16.17
2018-09-17T17:46:27.643Z,6.13
2018-09-17T17:48:56.166Z,13.73
2018-09-17T17:51:24.808Z,5.80
2018-09-17T17:53:53.355Z,5.90
2018-09-17T17:56:22.002Z,11.23
2018-09-17T17:58:50.729Z,7.83
2018-09-17T18:01:19.350Z,10.73
2018-09-17T18:03:47.991Z,5.20
2018-09-17T18:06:16.554Z,12.70
2018-09-17T18:08:45.095Z,6.00
2018-09-17T18:11:13.693Z,6.10
2018-09-17T18:13:42.227Z,6.87
2018-09-17T18:16:10.791Z,16.73
2018-09-17T18:18:39.466Z,5.80
2018-09-17T18:21:08.229Z,7.60
2018-09-17T18:23:37.031Z,7.00
2018-09-17T18:26:05.640Z,6.10
2018-09-17T18:28:34.242Z,5.87
2018-09-17T18:31:02.785Z,7.63
2018-09-17T18:33:31.332Z,7.43
2018-09-17T18:35:59.882Z,6.47
2018-09-17T18:38:28.457Z,11.93
2018-09-17T18:40:57.009Z,6.00
2018-09-17T18:43:25.586Z,6.13
2018-09-17T18:45:54.232Z,6.50
2018-09-17T18:48:22.908Z,8.50
2018-09-17T18:50:51.435Z,9.33
2018-09-17T18:53:20.021Z,12.07
2018-09-17T18:55:48.552Z,10.80
2018-09-17T18:58:17.112Z,9.80
2018-09-17T19:00:45.636Z,9.67
2018-09-17T19:03:14.272Z,7.93
2018-09-17T19:05:42.811Z,10.83
2018-09-17T19:08:11.392Z,10.80
2018-09-17T19:10:39.934Z,9.00
2018-09-17T19:13:08.447Z,6.57
2018-09-17T19:15:42.261Z,6.90
2018-09-17T19:18:17.417Z,10.83
2018-09-17T19:20:47.035Z,7.30
2018-09-17T19:23:20.694Z,5.93
2018-09-17T19:25:49.284Z,6.57
2018-09-17T19:28:23.086Z,11.33
2018-09-17T19:30:51.694Z,6.03
2018-09-17T19:33:20.251Z,8.38
2018-09-17T19:35:48.913Z,6.10
2018-09-17T19:38:22.670Z,8.95
2018-09-17T19:40:51.251Z,7.00
2018-09-17T19:43:19.857Z,7.20
2018-09-17T19:45:53.654Z,8.55
2018-09-17T19:48:22.240Z,6.12
2018-09-17T19:50:55.975Z,9.75
2018-09-17T19:53:24.560Z,8.68
2018-09-17T19:55:53.194Z,7.35
2018-09-17T19:58:26.981Z,8.35
2018-09-17T20:00:55.645Z,7.05
2018-09-17T20:03:24.133Z,15.05
2018-09-17T20:05:57.931Z,10.05
2018-09-17T20:08:26.518Z,9.30
2018-09-17T20:10:55.078Z,7.70
2018-09-17T20:13:23.932Z,7.60
2018-09-17T20:15:52.484Z,11.10
2018-09-17T20:18:21.044Z,9.48
2018-09-17T20:20:49.562Z,7.85
2018-09-17T20:23:18.156Z,7.55
2018-09-17T20:25:46.706Z,7.12
2018-09-17T20:28:15.236Z,10.72
2018-09-17T20:30:43.808Z,6.67
2018-09-17T20:33:12.404Z,10.05
2018-09-17T20:35:41.013Z,10.08
2018-09-17T20:38:09.551Z,8.30
2018-09-17T20:40:38.110Z,7.25
2018-09-17T20:43:06.713Z,7.33
2018-09-17T20:45:35.219Z,10.98
2018-09-17T20:48:03.786Z,9.93
2018-09-17T20:50:32.338Z,11.70
2018-09-17T20:53:04.103Z,9.78
2018-09-17T20:55:32.668Z,6.92
2018-09-17T20:58:01.269Z,7.90
2018-09-17T21:00:29.828Z,9.83
2018-09-17T21:02:58.414Z,9.05
2018-09-17T21:05:26.987Z,9.58
2018-09-17T21:07:55.521Z,10.90
2018-09-17T21:10:24.079Z,8.23
2018-09-17T21:12:52.608Z,8.90
2018-09-17T21:15:21.128Z,9.08
2018-09-17T21:17:49.793Z,7.30
2018-09-17T21:20:18.375Z,7.50
2018-09-17T21:22:46.911Z,7.92
2018-09-17T21:25:15.484Z,8.15
2018-09-17T21:27:44.057Z,9.28
2018-09-17T21:30:12.615Z,8.95
2018-09-17T21:32:41.187Z,6.58
2018-09-17T21:35:09.776Z,10.00
2018-09-17T21:37:38.315Z,9.95
2018-09-17T21:40:06.908Z,7.67
2018-09-17T21:42:35.543Z,8.58
2018-09-17T21:45:05.246Z,7.47
2018-09-17T21:47:33.799Z,7.92
2018-09-17T21:50:02.313Z,8.28
2018-09-17T21:52:30.921Z,8.28
2018-09-17T21:54:59.463Z,8.38
2018-09-17T21:57:28.118Z,10.55
2018-09-17T21:59:56.650Z,6.78
2018-09-17T22:02:25.335Z,7.72
2018-09-17T22:04:54.126Z,7.83
2018-09-17T22:07:23.845Z,11.10
2018-09-17T22:09:52.823Z,10.53
2018-09-17T22:12:21.388Z,8.68
2018-09-17T22:14:49.927Z,11.57
2018-09-17T22:17:18.461Z,8.43
2018-09-17T22:19:47.050Z,8.45
2018-09-17T22:22:15.583Z,7.97
2018-09-17T22:24:44.176Z,8.78
2018-09-17T22:27:12.684Z,11.57
2018-09-17T22:29:41.237Z,9.63
2018-09-17T22:32:11.784Z,10.65
2018-09-17T22:34:41.758Z,13.95
2018-09-17T22:37:10.380Z,8.95
2018-09-17T22:39:38.919Z,12.95
2018-09-17T22:42:07.518Z,10.55
2018-09-17T22:44:36.072Z,15.08
2018-09-17T22:47:04.765Z,13.13
2018-09-17T22:49:33.292Z,15.15
2018-09-17T22:52:01.878Z,12.40
2018-09-17T22:54:30.405Z,9.60
2018-09-17T22:56:58.950Z,9.00
2018-09-17T22:59:27.510Z,15.30
2018-09-17T23:01:56.106Z,11.78
2018-09-17T23:04:24.601Z,17.32
2018-09-17T23:06:53.110Z,9.80
2018-09-17T23:09:21.659Z,10.53
2018-09-17T23:11:50.213Z,15.20
2018-09-17T23:14:18.740Z,10.55
2018-09-17T23:16:47.297Z,21.07
2018-09-17T23:19:15.840Z,10.45
2018-09-17T23:21:44.356Z,11.48
2018-09-17T23:24:12.940Z,11.35
2018-09-17T23:26:41.458Z,11.75
2018-09-17T23:29:09.988Z,9.15
2018-09-17T23:31:38.524Z,8.88
2018-09-17T23:34:07.082Z,11.18
2018-09-17T23:36:35.616Z,11.38
2018-09-17T23:39:05.902Z,9.88
2018-09-17T23:41:34.449Z,9.95
2018-09-17T23:44:03.104Z,13.55
2018-09-17T23:46:31.693Z,13.40
2018-09-17T23:49:00.212Z,9.30
2018-09-17T23:51:28.832Z,10.32
2018-09-17T23:53:57.390Z,12.75
2018-09-17T23:56:25.934Z,9.25
2018-09-17T23:58:54.466Z,10.95
